Observation data for Andrews on 08/14/2020      Previous  Date  Next       Current Mesonet Observations  Soil Data  Daily Summary Page  Observations in Plain Language
KANS 140500Z 18008KT 30/09 A3001 RMK A01 T03020091  RH  028%=      5-min Rain = 0
KANS 140505Z 19008KT 30/09 A3001 RMK A01 T03030092  RH  028%=      5-min Rain = 0
KANS 140510Z 19008KT 30/09 A3001 RMK A01 T03020093  RH  028%=      5-min Rain = 0
KANS 140515Z 19008KT 30/09 A3001 RMK A01 T03020094  RH  028%=      5-min Rain = 0
KANS 140520Z 19008KT 30/10 A3001 RMK A01 T03010095  RH  029%=      5-min Rain = 0
KANS 140525Z 19008KT 30/10 A3001 RMK A01 T02990095  RH  029%=      5-min Rain = 0
KANS 140530Z 18008KT 30/10 A3001 RMK A01 T02980096  RH  029%=      5-min Rain = 0
KANS 140535Z 18008KT 30/10 A3001 RMK A01 T02980096  RH  029%=      5-min Rain = 0
KANS 140540Z 18008KT 30/10 A3001 RMK A01 T02970096  RH  030%=      5-min Rain = 0
KANS 140545Z 18007KT 29/10 A3001 RMK A01 T02940097  RH  030%=      5-min Rain = 0
KANS 140550Z 18007KT 29/10 A3001 RMK A01 T02930097  RH  031%=      5-min Rain = 0
KANS 140555Z 19006KT 29/10 A3001 RMK A01 T02910097  RH  031%=      5-min Rain = 0
KANS 140600Z 19007KT 29/10 A3001 RMK A01 T02890098  RH  031%=      5-min Rain = 0
KANS 140605Z 18007KT 29/10 A3001 RMK A01 T02890098  RH  031%=      5-min Rain = 0
KANS 140610Z 18007KT 29/10 A3001 RMK A01 T02880099  RH  032%=      5-min Rain = 0
KANS 140615Z 18007KT 29/10 A3001 RMK A01 T02880099  RH  032%=      5-min Rain = 0
KANS 140620Z 19008KT 29/10 A3001 RMK A01 T02880100  RH  032%=      5-min Rain = 0
KANS 140625Z 19009KT 29/10 A3001 RMK A01 T02880100  RH  032%=      5-min Rain = 0
KANS 140630Z 18008KT 29/10 A3002 RMK A01 T02880101  RH  032%=      5-min Rain = 0
KANS 140635Z 19008KT 29/10 A3002 RMK A01 T02870101  RH  032%=      5-min Rain = 0
KANS 140640Z 18008KT 29/10 A3002 RMK A01 T02860102  RH  033%=      5-min Rain = 0
KANS 140645Z 18009KT 29/10 A3001 RMK A01 T02860103  RH  033%=      5-min Rain = 0
KANS 140650Z 18008KT 29/10 A3001 RMK A01 T02860103  RH  033%=      5-min Rain = 0
KANS 140655Z 19008KT 29/10 A3001 RMK A01 T02850104  RH  034%=      5-min Rain = 0
KANS 140700Z 19008KT 28/10 A3001 RMK A01 T02830104  RH  034%=      5-min Rain = 0
KANS 140705Z 19008KT 28/11 A3001 RMK A01 T02830105  RH  034%=      5-min Rain = 0
KANS 140710Z 19007G12KT 28/11 A3001 RMK A01 T02810106  RH  035%=      5-min Rain = 0
KANS 140715Z 19007KT 28/11 A3001 RMK A01 T02800106  RH  035%=      5-min Rain = 0
KANS 140720Z 19006KT 28/11 A3001 RMK A01 T02780107  RH  035%=      5-min Rain = 0
KANS 140725Z 18007KT 28/11 A3001 RMK A01 T02770107  RH  036%=      5-min Rain = 0
KANS 140730Z 19007KT 28/11 A3001 RMK A01 T02750107  RH  036%=      5-min Rain = 0
KANS 140735Z 19008KT 27/11 A3001 RMK A01 T02740107  RH  037%=      5-min Rain = 0
KANS 140740Z 19008KT 27/11 A3001 RMK A01 T02740108  RH  037%=      5-min Rain = 0
KANS 140745Z 19007KT 27/11 A3001 RMK A01 T02740109  RH  037%=      5-min Rain = 0
KANS 140750Z 19007KT 27/11 A3001 RMK A01 T02730109  RH  037%=      5-min Rain = 0
KANS 140755Z 19008KT 27/11 A3001 RMK A01 T02720109  RH  037%=      5-min Rain = 0
KANS 140800Z 19007KT 27/11 A3001 RMK A01 T02710110  RH  038%=      5-min Rain = 0
KANS 140805Z 19007KT 27/11 A3001 RMK A01 T02690110  RH  038%=      5-min Rain = 0
KANS 140810Z 19007KT 27/11 A30 RMK A01 T02670110  RH  039%=      5-min Rain = 0
KANS 140815Z 19007KT 27/11 A30 RMK A01 T02670112  RH  039%=      5-min Rain = 0
KANS 140820Z 19008KT 27/11 A3001 RMK A01 T02670113  RH  039%=      5-min Rain = 0
KANS 140825Z 19008KT 27/11 A30 RMK A01 T02680114  RH  040%=      5-min Rain = 0
KANS 140830Z 18009G14KT 27/12 A30 RMK A01 T02690115  RH  040%=      5-min Rain = 0
KANS 140835Z 18009KT 27/12 A3001 RMK A01 T02690116  RH  040%=      5-min Rain = 0
KANS 140840Z 18008KT 27/12 A30 RMK A01 T02690117  RH  040%=      5-min Rain = 0
KANS 140845Z 18008KT 27/12 A30 RMK A01 T02680118  RH  041%=      5-min Rain = 0
KANS 140850Z 18008KT 27/12 A30 RMK A01 T02670118  RH  041%=      5-min Rain = 0
KANS 140855Z 18008KT 27/12 A30 RMK A01 T02670119  RH  041%=      5-min Rain = 0
KANS 140900Z 19007KT 27/12 A30 RMK A01 T02670120  RH  042%=      5-min Rain = 0
KANS 140905Z 19007KT 27/12 A30 RMK A01 T02660121  RH  042%=      5-min Rain = 0
KANS 140910Z 19008KT 27/12 A30 RMK A01 T02660121  RH  042%=      5-min Rain = 0
KANS 140915Z 19006KT 27/12 A30 RMK A01 T02650122  RH  043%=      5-min Rain = 0
KANS 140920Z 19007KT 26/12 A30 RMK A01 T02640122  RH  043%=      5-min Rain = 0
KANS 140925Z 18006KT 26/12 A30 RMK A01 T02630123  RH  043%=      5-min Rain = 0
KANS 140930Z 18006KT 26/12 A30 RMK A01 T02620123  RH  044%=      5-min Rain = 0
KANS 140935Z 18006KT 26/12 A30 RMK A01 T02600123  RH  044%=      5-min Rain = 0
KANS 140940Z 19006KT 26/12 A30 RMK A01 T02590123  RH  044%=      5-min Rain = 0
KANS 140945Z 19005KT 26/12 A30 RMK A01 T02570123  RH  045%=      5-min Rain = 0
KANS 140950Z 19005KT 26/12 A30 RMK A01 T02550123  RH  046%=      5-min Rain = 0
KANS 140955Z 19005KT 25/12 A30 RMK A01 T02540123  RH  046%=      5-min Rain = 0
KANS 141000Z 19006KT 25/12 A30 RMK A01 T02540124  RH  046%=      5-min Rain = 0
KANS 141005Z 20005KT 25/12 A30 RMK A01 T02540124  RH  046%=      5-min Rain = 0
KANS 141010Z 19005KT 25/12 A30 RMK A01 T02530124  RH  046%=      5-min Rain = 0
KANS 141015Z 19005KT 25/12 A30 RMK A01 T02520124  RH  047%=      5-min Rain = 0
KANS 141020Z 20006KT 25/12 A30 RMK A01 T02510124  RH  047%=      5-min Rain = 0
KANS 141025Z 19005KT 25/12 A30 RMK A01 T02510124  RH  047%=      5-min Rain = 0
KANS 141030Z 20005KT 25/12 A30 RMK A01 T02510124  RH  047%=      5-min Rain = 0
KANS 141035Z 20005KT 25/12 A30 RMK A01 T02500124  RH  047%=      5-min Rain = 0
KANS 141040Z 18005KT 25/13 A30 RMK A01 T02500125  RH  047%=      5-min Rain = 0
KANS 141045Z 19005KT 25/13 A30 RMK A01 T02500125  RH  048%=      5-min Rain = 0
KANS 141050Z 19005KT 25/13 A30 RMK A01 T02480125  RH  048%=      5-min Rain = 0
KANS 141055Z 19005KT 25/13 A30 RMK A01 T02460125  RH  049%=      5-min Rain = 0
KANS 141100Z 19005KT 24/13 A30 RMK A01 T02430125  RH  049%=      5-min Rain = 0
KANS 141105Z 19005KT 24/13 A30 RMK A01 T02410125  RH  050%=      5-min Rain = 0
KANS 141110Z 18005KT 24/12 A30 RMK A01 T02410124  RH  050%=      5-min Rain = 0
KANS 141115Z 18005KT 24/12 A30 RMK A01 T02400124  RH  050%=      5-min Rain = 0
KANS 141120Z 19005KT 24/13 A30 RMK A01 T02410125  RH  050%=      5-min Rain = 0
KANS 141125Z 18005KT 24/13 A30 RMK A01 T02410125  RH  050%=      5-min Rain = 0
KANS 141130Z 18005KT 24/13 A3001 RMK A01 T02420125  RH  050%=      5-min Rain = 0
KANS 141135Z 17006KT 24/13 A3001 RMK A01 T02430126  RH  050%=      5-min Rain = 0
KANS 141140Z 18006KT 24/13 A3001 RMK A01 T02430126  RH  050%=      5-min Rain = 0
KANS 141145Z 18006KT 24/13 A3001 RMK A01 T02440126  RH  050%=      5-min Rain = 0
KANS 141150Z 19006KT 25/13 A3001 RMK A01 T02450127  RH  050%=      5-min Rain = 0
KANS 141155Z 19006KT 25/13 A3002 RMK A01 T02470127  RH  049%=      5-min Rain = 0
KANS 141200Z 21005KT 25/13 A3002 RMK A01 T02480128  RH  049%=      5-min Rain = 0
KANS 141205Z 20006KT 25/13 A3002 RMK A01 T02490128  RH  049%=      5-min Rain = 0
KANS 141210Z 20006KT 25/13 A3002 RMK A01 T02490128  RH  049%=      5-min Rain = 0
KANS 141215Z 19006KT 25/13 A3002 RMK A01 T02490128  RH  049%=      5-min Rain = 0
KANS 141220Z 18006KT 25/13 A3002 RMK A01 T02490128  RH  049%=      5-min Rain = 0
KANS 141225Z 19005KT 25/13 A3003 RMK A01 T02480128  RH  049%=      5-min Rain = 0
KANS 141230Z 19004KT 25/13 A3003 RMK A01 T02470128  RH  049%=      5-min Rain = 0
KANS 141235Z 18005KT 25/13 A3003 RMK A01 T02460128  RH  050%=      5-min Rain = 0
KANS 141240Z 18005KT 25/13 A3003 RMK A01 T02460128  RH  050%=      5-min Rain = 0
KANS 141245Z 18005KT 25/13 A3003 RMK A01 T02470129  RH  050%=      5-min Rain = 0
KANS 141250Z 20004KT 25/13 A3004 RMK A01 T02470129  RH  050%=      5-min Rain = 0
KANS 141255Z 20004KT 25/13 A3004 RMK A01 T02490130  RH  049%=      5-min Rain = 0
KANS 141300Z 19003KT 25/13 A3004 RMK A01 T02540131  RH  049%=      5-min Rain = 0
KANS 141305Z 19004KT 26/13 A3004 RMK A01 T02590132  RH  047%=      5-min Rain = 0
KANS 141310Z 18004KT 26/13 A3004 RMK A01 T02640132  RH  046%=      5-min Rain = 0
KANS 141315Z 18004KT 27/13 A3004 RMK A01 T02680133  RH  045%=      5-min Rain = 0
KANS 141320Z 18005KT 27/13 A3004 RMK A01 T02730133  RH  044%=      5-min Rain = 0
KANS 141325Z 18004KT 28/13 A3004 RMK A01 T02760133  RH  043%=      5-min Rain = 0
KANS 141330Z 21004KT 28/14 A3005 RMK A01 T02790135  RH  043%=      5-min Rain = 0
KANS 141335Z 22005KT 28/14 A3005 RMK A01 T02820135  RH  042%=      5-min Rain = 0
KANS 141340Z 21006KT 28/14 A3004 RMK A01 T02830135  RH  042%=      5-min Rain = 0
KANS 141345Z 21006KT 28/13 A3005 RMK A01 T02830134  RH  041%=      5-min Rain = 0
KANS 141350Z 19007KT 29/13 A3005 RMK A01 T02870134  RH  041%=      5-min Rain = 0
KANS 141355Z 20005KT 29/13 A3005 RMK A01 T02890134  RH  040%=      5-min Rain = 0
KANS 141400Z 20005KT 29/13 A3005 RMK A01 T02890134  RH  040%=      5-min Rain = 0
KANS 141405Z 20006KT 29/13 A3005 RMK A01 T02910133  RH  040%=      5-min Rain = 0
KANS 141410Z 21006KT 29/13 A3005 RMK A01 T02940134  RH  039%=      5-min Rain = 0
KANS 141415Z 21006KT 30/13 A3005 RMK A01 T02960134  RH  039%=      5-min Rain = 0
KANS 141420Z 20006KT 30/13 A3005 RMK A01 T02990134  RH  038%=      5-min Rain = 0
KANS 141425Z 21005KT 30/14 A3005 RMK A01 T03020135  RH  038%=      5-min Rain = 0
KANS 141430Z 20007KT 31/13 A3005 RMK A01 T03050133  RH  036%=      5-min Rain = 0
KANS 141435Z 20006KT 31/13 A3005 RMK A01 T03080132  RH  036%=      5-min Rain = 0
KANS 141440Z 19008KT 31/13 A3005 RMK A01 T03100130  RH  035%=      5-min Rain = 0
KANS 141445Z 18008KT 31/13 A3005 RMK A01 T03120130  RH  034%=      5-min Rain = 0
KANS 141450Z 19008KT 32/13 A3005 RMK A01 T03160130  RH  034%=      5-min Rain = 0
KANS 141455Z 19008KT 32/13 A3004 RMK A01 T03170130  RH  033%=      5-min Rain = 0
KANS 141500Z 18007KT 32/13 A3004 RMK A01 T03170131  RH  033%=      5-min Rain = 0
KANS 141505Z 18005KT 32/13 A3005 RMK A01 T03190131  RH  033%=      5-min Rain = 0
KANS 141510Z 18007KT 32/13 A3004 RMK A01 T03210129  RH  032%=      5-min Rain = 0
KANS 141515Z 19007KT 32/13 A3004 RMK A01 T03240129  RH  032%=      5-min Rain = 0
KANS 141520Z 19006KT 33/13 A3004 RMK A01 T03300129  RH  031%=      5-min Rain = 0
KANS 141525Z 19006KT 33/13 A3005 RMK A01 T03280129  RH  031%=      5-min Rain = 0
KANS 141530Z 18007KT 33/13 A3005 RMK A01 T03290129  RH  031%=      5-min Rain = 0
KANS 141535Z 18005KT 33/13 A3005 RMK A01 T03290131  RH  031%=      5-min Rain = 0
KANS 141540Z 18006KT 34/13 A3004 RMK A01 T03360129  RH  030%=      5-min Rain = 0
KANS 141545Z 18007KT 35/13 A3004 RMK A01 T03470127  RH  028%=      5-min Rain = 0
KANS 141550Z 19009KT 35/13 A3004 RMK A01 T03510125  RH  027%=      5-min Rain = 0
KANS 141555Z 19009G14KT 35/12 A3004 RMK A01 T03490121  RH  026%=      5-min Rain = 0
KANS 141600Z 20009KT 35/12 A3004 RMK A01 T03510120  RH  026%=      5-min Rain = 0
KANS 141605Z 21007KT 35/12 A3004 RMK A01 T03510121  RH  026%=      5-min Rain = 0
KANS 141610Z 20006KT 35/12 A3004 RMK A01 T03530117  RH  025%=      5-min Rain = 0
KANS 141615Z 19007G12KT 35/12 A3004 RMK A01 T03500115  RH  025%=      5-min Rain = 0
KANS 141620Z 20005KT 35/12 A3004 RMK A01 T03530115  RH  025%=      5-min Rain = 0
KANS 141625Z 22007KT 35/11 A3004 RMK A01 T03530114  RH  024%=      5-min Rain = 0
KANS 141630Z 23006KT 35/11 A3004 RMK A01 T03540108  RH  023%=      5-min Rain = 0
KANS 141635Z 23005KT 35/11 A3004 RMK A01 T03540108  RH  023%=      5-min Rain = 0
KANS 141640Z 22004G9KT 35/11 A3004 RMK A01 T03540110  RH  024%=      5-min Rain = 0
KANS 141645Z 22005KT 36/11 A3005 RMK A01 T03550112  RH  024%=      5-min Rain = 0
KANS 141650Z 21005KT 35/11 A3005 RMK A01 T03540111  RH  024%=      5-min Rain = 0
KANS 141655Z 21007KT 35/11 A3005 RMK A01 T03540113  RH  024%=      5-min Rain = 0
KANS 141700Z 22005KT 35/11 A3004 RMK A01 T03540110  RH  024%=      5-min Rain = 0
KANS 141705Z 23007KT 36/11 A3004 RMK A01 T03550107  RH  023%=      5-min Rain = 0
KANS 141710Z 23007KT 35/11 A3004 RMK A01 T03540111  RH  024%=      5-min Rain = 0
KANS 141715Z 23006KT 35/11 A3004 RMK A01 T03520114  RH  024%=      5-min Rain = 0
KANS 141720Z 22007KT 35/12 A3004 RMK A01 T03500115  RH  025%=      5-min Rain = 0
KANS 141725Z 21006KT 35/12 A3004 RMK A01 T03500116  RH  025%=      5-min Rain = 0
KANS 141730Z 20007KT 35/11 A3004 RMK A01 T03500113  RH  025%=      5-min Rain = 0
KANS 141735Z 19007KT 35/11 A3004 RMK A01 T03500112  RH  025%=      5-min Rain = 0
KANS 141740Z 21008KT 35/11 A3004 RMK A01 T03490110  RH  024%=      5-min Rain = 0
KANS 141745Z 21008KT 35/11 A3004 RMK A01 T03490111  RH  024%=      5-min Rain = 0
KANS 141750Z 20006KT 35/11 A3004 RMK A01 T03490111  RH  024%=      5-min Rain = 0
KANS 141755Z 22007KT 35/11 A3004 RMK A01 T03490111  RH  025%=      5-min Rain = 0
KANS 141800Z 21008KT 35/11 A3004 RMK A01 T03480111  RH  025%=      5-min Rain = 0
KANS 141805Z 19007KT 35/11 A3004 RMK A01 T03460108  RH  024%=      5-min Rain = 0
KANS 141810Z 19007KT 35/11 A3004 RMK A01 T03470109  RH  024%=      5-min Rain = 0
KANS 141815Z 19004KT 35/11 A3004 RMK A01 T03480109  RH  024%=      5-min Rain = 0
KANS 141820Z 20005KT 35/11 A3004 RMK A01 T03490108  RH  024%=      5-min Rain = 0
KANS 141825Z 19005KT 35/11 A3004 RMK A01 T03500106  RH  023%=      5-min Rain = 0
KANS 141830Z 20006KT 35/11 A3004 RMK A01 T03510105  RH  023%=      5-min Rain = 0
KANS 141835Z 20006KT 35/11 A3004 RMK A01 T03530105  RH  023%=      5-min Rain = 0
KANS 141840Z 19006KT 36/10 A3004 RMK A01 T03560103  RH  022%=      5-min Rain = 0
KANS 141845Z 19006KT 36/10 A3004 RMK A01 T03600104  RH  022%=      5-min Rain = 0
KANS 141850Z 21005KT 36/10 A3003 RMK A01 T03640103  RH  021%=      5-min Rain = 0
KANS 141855Z 21004KT 37/10 A3003 RMK A01 T03660103  RH  021%=      5-min Rain = 0
KANS 141900Z 21005KT 37/10 A3003 RMK A01 T03680100  RH  021%=      5-min Rain = 0
KANS 141905Z 25004KT 37/10 A3003 RMK A01 T03720102  RH  020%=      5-min Rain = 0
KANS 141910Z 21004KT 37/10 A3003 RMK A01 T03700098  RH  020%=      5-min Rain = 0
KANS 141915Z 21003KT 37/10 A3003 RMK A01 T03690097  RH  020%=      5-min Rain = 0
KANS 141920Z 23003KT 37/10 A3003 RMK A01 T03700099  RH  020%=      5-min Rain = 0
KANS 141925Z 21003KT 37/10 A3002 RMK A01 T03710098  RH  020%=      5-min Rain = 0
KANS 141930Z 21004KT 37/10 A3002 RMK A01 T03720097  RH  020%=      5-min Rain = 0
KANS 141935Z 26004KT 38/10 A3002 RMK A01 T03760098  RH  019%=      5-min Rain = 0
KANS 141940Z 26003KT 38/09 A3002 RMK A01 T03750093  RH  019%=      5-min Rain = 0
KANS 141945Z 24002KT 38/09 A3002 RMK A01 T03770094  RH  019%=      5-min Rain = 0
KANS 141950Z 32006KT 38/10 A3002 RMK A01 T03800097  RH  019%=      5-min Rain = 0
KANS 141955Z 31007KT 38/10 A3002 RMK A01 T03800095  RH  018%=      5-min Rain = 0
KANS 142000Z 30005KT 38/09 A3001 RMK A01 T03790094  RH  018%=      5-min Rain = 0
KANS 142005Z 30005KT 38/09 A3001 RMK A01 T03830094  RH  018%=      5-min Rain = 0
KANS 142010Z 30003KT 38/09 A3001 RMK A01 T03830093  RH  018%=      5-min Rain = 0
KANS 142015Z 28004KT 38/10 A3001 RMK A01 T03790095  RH  019%=      5-min Rain = 0
KANS 142020Z 31004KT 38/09 A3001 RMK A01 T03780094  RH  019%=      5-min Rain = 0
KANS 142025Z 32005KT 38/09 A30 RMK A01 T03800090  RH  018%=      5-min Rain = 0
KANS 142030Z 34004KT 38/09 A30 RMK A01 T03750089  RH  018%=      5-min Rain = 0
KANS 142035Z 01003KT 38/09 A30 RMK A01 T03750087  RH  018%=      5-min Rain = 0
KANS 142040Z 31003KT 38/09 A30 RMK A01 T03750086  RH  018%=      5-min Rain = 0
KANS 142045Z 32001KT 38/09 A2999 RMK A01 T03750086  RH  018%=      5-min Rain = 0
KANS 142050Z 02004KT 38/08 A2999 RMK A01 T03790076  RH  016%=      5-min Rain = 0
KANS 142055Z 07003KT 38/07 A2999 RMK A01 T03800072  RH  016%=      5-min Rain = 0
KANS 142100Z 33003KT 38/07 A2999 RMK A01 T03810074  RH  016%=      5-min Rain = 0
KANS 142105Z 02003KT 38/07 A2999 RMK A01 T03810074  RH  016%=      5-min Rain = 0
KANS 142110Z 34001KT 38/08 A2998 RMK A01 T03790077  RH  016%=      5-min Rain = 0
KANS 142115Z 35003KT 38/08 A2998 RMK A01 T03810078  RH  016%=      5-min Rain = 0
KANS 142120Z 06001KT 38/08 A2998 RMK A01 T03820076  RH  016%=      5-min Rain = 0
KANS 142125Z 04003KT 38/08 A2998 RMK A01 T03840081  RH  016%=      5-min Rain = 0
KANS 142130Z 05001KT 38/08 A2998 RMK A01 T03840078  RH  016%=      5-min Rain = 0
KANS 142135Z 03001KT 38/08 A2998 RMK A01 T03840075  RH  016%=      5-min Rain = 0
KANS 142140Z 05001KT 38/07 A2997 RMK A01 T03810074  RH  016%=      5-min Rain = 0
KANS 142145Z 21002KT 38/08 A2997 RMK A01 T03840079  RH  016%=      5-min Rain = 0
KANS 142150Z 20002KT 39/08 A2997 RMK A01 T03860077  RH  016%=      5-min Rain = 0
KANS 142155Z 26002KT 40/08 A2997 RMK A01 T03960077  RH  015%=      5-min Rain = 0
KANS 142200Z 26003KT 40/07 A2997 RMK A01 T03980071  RH  014%=      5-min Rain = 0
KANS 142205Z 17004KT 39/06 A2997 RMK A01 T03910064  RH  014%=      5-min Rain = 0
KANS 142210Z 20003KT 39/07 A2996 RMK A01 T03850069  RH  015%=      5-min Rain = 0
KANS 142215Z 22003KT 38/07 A2996 RMK A01 T03820072  RH  016%=      5-min Rain = 0
KANS 142220Z 22003KT 38/08 A2996 RMK A01 T03800076  RH  016%=      5-min Rain = 0
KANS 142225Z 23002KT 38/07 A2996 RMK A01 T03800073  RH  016%=      5-min Rain = 0
KANS 142230Z 20002KT 38/07 A2995 RMK A01 T03810073  RH  016%=      5-min Rain = 0
KANS 142235Z 20001KT 38/08 A2995 RMK A01 T03800076  RH  016%=      5-min Rain = 0
KANS 142240Z 17001KT 38/07 A2995 RMK A01 T03800069  RH  015%=      5-min Rain = 0
KANS 142245Z 19001KT 38/07 A2995 RMK A01 T03810069  RH  015%=      5-min Rain = 0
KANS 142250Z 18003KT 38/08 A2995 RMK A01 T03790077  RH  016%=      5-min Rain = 0
KANS 142255Z 18003KT 38/07 A2995 RMK A01 T03800073  RH  016%=      5-min Rain = 0
KANS 142300Z 17004KT 39/07 A2995 RMK A01 T03890071  RH  015%=      5-min Rain = 0
KANS 142305Z 18005KT 39/07 A2995 RMK A01 T03880068  RH  015%=      5-min Rain = 0
KANS 142310Z 19006KT 38/07 A2995 RMK A01 T03830073  RH  016%=      5-min Rain = 0
KANS 142315Z 20006KT 38/07 A2994 RMK A01 T03820070  RH  015%=      5-min Rain = 0
KANS 142320Z 18004KT 38/07 A2995 RMK A01 T03800070  RH  016%=      5-min Rain = 0
KANS 142325Z 18003KT 38/07 A2994 RMK A01 T03800072  RH  016%=      5-min Rain = 0
KANS 142330Z 20004KT 38/08 A2994 RMK A01 T03780075  RH  016%=      5-min Rain = 0
KANS 142335Z 20005KT 38/07 A2994 RMK A01 T03770073  RH  016%=      5-min Rain = 0
KANS 142340Z 22003KT 38/07 A2994 RMK A01 T03780073  RH  016%=      5-min Rain = 0
KANS 142345Z 24004KT 38/08 A2994 RMK A01 T03780077  RH  016%=      5-min Rain = 0
KANS 142350Z 23004KT 38/08 A2994 RMK A01 T03770081  RH  017%=      5-min Rain = 0
KANS 142355Z 24004KT 38/08 A2994 RMK A01 T03760082  RH  017%=      5-min Rain = 0
KANS 150000Z 23005KT 38/08 A2994 RMK A01 T03750083  RH  017%=      5-min Rain = 0
KANS 150005Z 23004KT 37/09 A2994 RMK A01 T03720086  RH  018%=      5-min Rain = 0
KANS 150010Z 22004KT 37/08 A2994 RMK A01 T03720084  RH  018%=      5-min Rain = 0
KANS 150015Z 22003KT 37/09 A2994 RMK A01 T03720089  RH  019%=      5-min Rain = 0
KANS 150020Z 22002KT 37/09 A2994 RMK A01 T03720088  RH  018%=      5-min Rain = 0
KANS 150025Z 23001KT 37/09 A2994 RMK A01 T03740087  RH  018%=      5-min Rain = 0
KANS 150030Z 24000KT 38/08 A2994 RMK A01 T03790082  RH  017%=      5-min Rain = 0
KANS 150035Z 21000KT 39/07 A2994 RMK A01 T03870070  RH  015%=      5-min Rain = 0
KANS 150040Z 18000KT 39/07 A2994 RMK A01 T03920071  RH  015%=      5-min Rain = 0
KANS 150045Z 20001KT 39/08 A2994 RMK A01 T03930076  RH  015%=      5-min Rain = 0
KANS 150050Z 19001KT 39/08 A2994 RMK A01 T03890081  RH  016%=      5-min Rain = 0
KANS 150055Z 17002KT 39/08 A2994 RMK A01 T03860084  RH  017%=      5-min Rain = 0
KANS 150100Z 16002KT 38/09 A2994 RMK A01 T03810092  RH  018%=      5-min Rain = 0
KANS 150105Z 18004KT 37/09 A2995 RMK A01 T03710092  RH  019%=      5-min Rain = 0
KANS 150110Z 18005KT 37/08 A2995 RMK A01 T03650083  RH  018%=      5-min Rain = 0
KANS 150115Z 17004KT 36/08 A2995 RMK A01 T03610079  RH  018%=      5-min Rain = 0
KANS 150120Z 17004KT 36/08 A2995 RMK A01 T03590077  RH  018%=      5-min Rain = 0
KANS 150125Z 18004KT 36/08 A2996 RMK A01 T03570079  RH  019%=      5-min Rain = 0
KANS 150130Z 19004KT 35/08 A2996 RMK A01 T03520083  RH  020%=      5-min Rain = 0
KANS 150135Z 20003KT 35/08 A2996 RMK A01 T03480081  RH  020%=      5-min Rain = 0
KANS 150140Z 20004KT 35/08 A2996 RMK A01 T03460080  RH  020%=      5-min Rain = 0
KANS 150145Z 20004KT 35/08 A2996 RMK A01 T03460079  RH  020%=      5-min Rain = 0
KANS 150150Z 20004KT 35/08 A2996 RMK A01 T03450080  RH  020%=      5-min Rain = 0
KANS 150155Z 20003KT 34/08 A2996 RMK A01 T03440078  RH  020%=      5-min Rain = 0
KANS 150200Z 20003KT 34/08 A2996 RMK A01 T03410080  RH  021%=      5-min Rain = 0
KANS 150205Z 20002KT 34/08 A2996 RMK A01 T03380081  RH  021%=      5-min Rain = 0
KANS 150210Z 20002KT 34/08 A2996 RMK A01 T03350082  RH  022%=      5-min Rain = 0
KANS 150215Z 20001KT 33/09 A2996 RMK A01 T03320089  RH  023%=      5-min Rain = 0
KANS 150220Z 15001KT 33/08 A2996 RMK A01 T03290081  RH  022%=      5-min Rain = 0
KANS 150225Z 16001KT 33/09 A2996 RMK A01 T03280085  RH  023%=      5-min Rain = 0
KANS 150230Z 00000KT 33/08 A2996 RMK A01 T03280082  RH  023%=      5-min Rain = 0
KANS 150235Z 16001KT 33/09 A2996 RMK A01 T03270089  RH  024%=      5-min Rain = 0
KANS 150240Z 17002KT 33/09 A2996 RMK A01 T03250087  RH  024%=      5-min Rain = 0
KANS 150245Z 17002KT 32/10 A2997 RMK A01 T03220095  RH  025%=      5-min Rain = 0
KANS 150250Z 17002KT 32/10 A2997 RMK A01 T03210096  RH  026%=      5-min Rain = 0
KANS 150255Z 17002KT 32/10 A2996 RMK A01 T03190100  RH  027%=      5-min Rain = 0
KANS 150300Z 17002KT 32/10 A2997 RMK A01 T03150098  RH  027%=      5-min Rain = 0
KANS 150305Z 17002KT 31/12 A2997 RMK A01 T03130117  RH  031%=      5-min Rain = 0
KANS 150310Z 17003KT 31/10 A2997 RMK A01 T03100103  RH  029%=      5-min Rain = 0
KANS 150315Z 17003KT 31/10 A2997 RMK A01 T03110101  RH  028%=      5-min Rain = 0
KANS 150320Z 17003KT 31/10 A2997 RMK A01 T03140102  RH  028%=      5-min Rain = 0
KANS 150325Z 16003KT 32/11 A2997 RMK A01 T03150111  RH  030%=      5-min Rain = 0
KANS 150330Z 16003KT 31/11 A2997 RMK A01 T03130114  RH  031%=      5-min Rain = 0
KANS 150335Z 16004KT 31/12 A2997 RMK A01 T03110118  RH  032%=      5-min Rain = 0
KANS 150340Z 14005KT 31/11 A2997 RMK A01 T03100111  RH  030%=      5-min Rain = 0
KANS 150345Z 12005KT 31/10 A2997 RMK A01 T03110100  RH  028%=      5-min Rain = 0
KANS 150350Z 14005KT 32/09 A2997 RMK A01 T03150088  RH  025%=      5-min Rain = 0
KANS 150355Z 15006KT 32/09 A2997 RMK A01 T03170086  RH  025%=      5-min Rain = 0
KANS 150400Z 15006KT 32/08 A2998 RMK A01 T03190080  RH  023%=      5-min Rain = 0
KANS 150405Z 13003KT 32/08 A2998 RMK A01 T03240075  RH  022%=      5-min Rain = 0
KANS 150410Z 35008G13KT 32/08 A30 RMK A01 T03240079  RH  023%=      5-min Rain = 0
KANS 150415Z 01008G19KT 32/08 A30 RMK A01 T03200084  RH  024%=      5-min Rain = 0
KANS 150420Z 35018G23KT 33/09 A3001 RMK A01 T03320087  RH  023%=      5-min Rain = 0
KANS 150425Z 36012KT 33/09 A3001 RMK A01 T03330091  RH  023%=      5-min Rain = 0
KANS 150430Z 02012KT 33/09 A3001 RMK A01 T03340088  RH  023%=      5-min Rain = 0
KANS 150435Z 02012KT 33/10 A3002 RMK A01 T03320095  RH  024%=      5-min Rain = 0
KANS 150440Z 02011G17KT 32/11 A3002 RMK A01 T03210106  RH  028%=      5-min Rain = 0
KANS 150445Z 02010KT 32/11 A3002 RMK A01 T03150108  RH  029%=      5-min Rain = 0
KANS 150450Z 03007G12KT 31/11 A3002 RMK A01 T03120109  RH  030%=      5-min Rain = 0
KANS 150455Z 04011KT 31/11 A3003 RMK A01 T03100110  RH  030%=      5-min Rain = 0

Page generated in 0.0161 seconds.